sensor_id;sensor_type;location;lat;lon;timestamp;P1;durP1;ratioP1;P2;durP2;ratioP2
48685;SDS011;34485;51.536;3.816;2023-05-24T00:00:14;11.63;;;3.85;;
48685;SDS011;34485;51.536;3.816;2023-05-24T00:02:41;15.20;;;3.70;;
48685;SDS011;34485;51.536;3.816;2023-05-24T00:05:07;11.68;;;3.25;;
48685;SDS011;34485;51.536;3.816;2023-05-24T00:07:34;18.60;;;3.95;;
48685;SDS011;34485;51.536;3.816;2023-05-24T00:10:01;8.90;;;3.50;;
48685;SDS011;34485;51.536;3.816;2023-05-24T00:12:27;8.88;;;3.20;;
48685;SDS011;34485;51.536;3.816;2023-05-24T00:14:53;6.88;;;3.58;;
48685;SDS011;34485;51.536;3.816;2023-05-24T00:17:18;6.40;;;2.87;;
48685;SDS011;34485;51.536;3.816;2023-05-24T00:19:44;11.00;;;3.50;;
48685;SDS011;34485;51.536;3.816;2023-05-24T00:22:10;9.23;;;2.70;;
48685;SDS011;34485;51.536;3.816;2023-05-24T00:24:38;9.80;;;4.00;;
48685;SDS011;34485;51.536;3.816;2023-05-24T00:27:04;5.67;;;3.00;;
48685;SDS011;34485;51.536;3.816;2023-05-24T00:29:30;12.10;;;2.92;;
48685;SDS011;34485;51.536;3.816;2023-05-24T00:31:56;7.80;;;3.47;;
48685;SDS011;34485;51.536;3.816;2023-05-24T00:34:21;9.20;;;3.43;;
48685;SDS011;34485;51.536;3.816;2023-05-24T00:36:47;8.48;;;2.30;;
48685;SDS011;34485;51.536;3.816;2023-05-24T00:39:12;12.70;;;3.53;;
48685;SDS011;34485;51.536;3.816;2023-05-24T00:41:38;8.50;;;2.22;;
48685;SDS011;34485;51.536;3.816;2023-05-24T00:44:04;6.50;;;3.57;;
48685;SDS011;34485;51.536;3.816;2023-05-24T00:46:31;12.17;;;3.47;;
48685;SDS011;34485;51.536;3.816;2023-05-24T00:48:57;14.88;;;3.70;;
48685;SDS011;34485;51.536;3.816;2023-05-24T00:51:24;12.82;;;3.33;;
48685;SDS011;34485;51.536;3.816;2023-05-24T00:53:54;6.43;;;2.83;;
48685;SDS011;34485;51.536;3.816;2023-05-24T00:56:20;6.90;;;3.40;;
48685;SDS011;34485;51.536;3.816;2023-05-24T00:58:45;10.52;;;3.20;;
48685;SDS011;34485;51.536;3.816;2023-05-24T01:01:11;15.60;;;4.18;;
48685;SDS011;34485;51.536;3.816;2023-05-24T01:03:38;9.43;;;3.40;;
48685;SDS011;34485;51.536;3.816;2023-05-24T01:06:04;11.93;;;3.60;;
48685;SDS011;34485;51.536;3.816;2023-05-24T01:13:46;13.47;;;3.67;;
48685;SDS011;34485;51.536;3.816;2023-05-24T01:16:21;9.50;;;4.05;;
48685;SDS011;34485;51.536;3.816;2023-05-24T01:18:51;9.60;;;3.53;;
48685;SDS011;34485;51.536;3.816;2023-05-24T01:21:31;19.55;;;4.07;;
48685;SDS011;34485;51.536;3.816;2023-05-24T01:29:24;15.30;;;3.65;;
48685;SDS011;34485;51.536;3.816;2023-05-24T01:31:51;4.38;;;3.00;;
48685;SDS011;34485;51.536;3.816;2023-05-24T01:34:17;8.18;;;3.53;;
48685;SDS011;34485;51.536;3.816;2023-05-24T01:36:43;4.70;;;3.13;;
48685;SDS011;34485;51.536;3.816;2023-05-24T01:39:09;8.13;;;2.97;;
48685;SDS011;34485;51.536;3.816;2023-05-24T01:41:40;7.85;;;3.60;;
48685;SDS011;34485;51.536;3.816;2023-05-24T01:44:26;10.17;;;3.20;;
48685;SDS011;34485;51.536;3.816;2023-05-24T01:47:00;15.98;;;3.40;;
48685;SDS011;34485;51.536;3.816;2023-05-24T01:49:33;18.08;;;3.80;;
48685;SDS011;34485;51.536;3.816;2023-05-24T01:52:14;16.10;;;3.10;;
48685;SDS011;34485;51.536;3.816;2023-05-24T01:54:44;11.60;;;3.42;;
48685;SDS011;34485;51.536;3.816;2023-05-24T01:57:14;17.63;;;3.43;;
48685;SDS011;34485;51.536;3.816;2023-05-24T01:59:42;13.00;;;3.90;;
48685;SDS011;34485;51.536;3.816;2023-05-24T02:02:09;6.38;;;3.80;;
48685;SDS011;34485;51.536;3.816;2023-05-24T02:04:36;8.80;;;3.35;;
48685;SDS011;34485;51.536;3.816;2023-05-24T02:07:02;7.03;;;3.33;;
48685;SDS011;34485;51.536;3.816;2023-05-24T02:09:27;10.37;;;3.27;;
48685;SDS011;34485;51.536;3.816;2023-05-24T02:11:53;8.83;;;3.30;;
48685;SDS011;34485;51.536;3.816;2023-05-24T02:14:19;12.52;;;3.50;;
48685;SDS011;34485;51.536;3.816;2023-05-24T02:16:45;4.33;;;3.37;;
48685;SDS011;34485;51.536;3.816;2023-05-24T02:19:14;11.37;;;3.70;;
48685;SDS011;34485;51.536;3.816;2023-05-24T02:21:41;3.83;;;2.78;;
48685;SDS011;34485;51.536;3.816;2023-05-24T02:24:07;16.55;;;3.53;;
48685;SDS011;34485;51.536;3.816;2023-05-24T02:26:35;4.18;;;3.35;;
48685;SDS011;34485;51.536;3.816;2023-05-24T02:29:01;8.82;;;3.95;;
48685;SDS011;34485;51.536;3.816;2023-05-24T02:31:27;12.73;;;3.60;;
48685;SDS011;34485;51.536;3.816;2023-05-24T02:33:56;7.05;;;3.65;;
48685;SDS011;34485;51.536;3.816;2023-05-24T02:36:22;13.57;;;3.97;;
48685;SDS011;34485;51.536;3.816;2023-05-24T02:38:48;8.10;;;3.40;;
48685;SDS011;34485;51.536;3.816;2023-05-24T02:41:15;15.48;;;3.83;;
48685;SDS011;34485;51.536;3.816;2023-05-24T02:43:42;11.88;;;3.90;;
48685;SDS011;34485;51.536;3.816;2023-05-24T02:46:08;6.93;;;3.45;;
48685;SDS011;34485;51.536;3.816;2023-05-24T02:48:34;4.47;;;3.63;;
48685;SDS011;34485;51.536;3.816;2023-05-24T02:51:00;10.90;;;4.38;;
48685;SDS011;34485;51.536;3.816;2023-05-24T02:53:27;6.05;;;4.07;;
48685;SDS011;34485;51.536;3.816;2023-05-24T02:58:29;5.38;;;3.60;;
48685;SDS011;34485;51.536;3.816;2023-05-24T03:00:54;9.50;;;4.17;;
48685;SDS011;34485;51.536;3.816;2023-05-24T03:03:20;15.57;;;3.90;;
48685;SDS011;34485;51.536;3.816;2023-05-24T03:05:45;5.67;;;3.63;;
48685;SDS011;34485;51.536;3.816;2023-05-24T03:08:11;6.07;;;3.97;;
48685;SDS011;34485;51.536;3.816;2023-05-24T03:10:37;8.20;;;4.10;;
48685;SDS011;34485;51.536;3.816;2023-05-24T03:13:02;15.03;;;3.47;;
48685;SDS011;34485;51.536;3.816;2023-05-24T03:15:28;10.55;;;4.00;;
48685;SDS011;34485;51.536;3.816;2023-05-24T03:17:53;16.07;;;3.80;;
48685;SDS011;34485;51.536;3.816;2023-05-24T03:20:19;8.00;;;3.50;;
48685;SDS011;34485;51.536;3.816;2023-05-24T03:22:45;8.18;;;3.22;;
48685;SDS011;34485;51.536;3.816;2023-05-24T03:25:11;7.45;;;4.28;;
48685;SDS011;34485;51.536;3.816;2023-05-24T03:27:36;10.83;;;3.70;;
48685;SDS011;34485;51.536;3.816;2023-05-24T03:30:02;13.30;;;3.70;;
48685;SDS011;34485;51.536;3.816;2023-05-24T03:32:30;13.18;;;3.67;;
48685;SDS011;34485;51.536;3.816;2023-05-24T03:34:57;11.50;;;3.20;;
48685;SDS011;34485;51.536;3.816;2023-05-24T03:37:24;10.18;;;3.47;;
48685;SDS011;34485;51.536;3.816;2023-05-24T03:39:50;7.68;;;4.22;;
48685;SDS011;34485;51.536;3.816;2023-05-24T03:42:16;9.93;;;3.40;;
48685;SDS011;34485;51.536;3.816;2023-05-24T03:44:41;7.72;;;3.85;;
48685;SDS011;34485;51.536;3.816;2023-05-24T03:47:07;8.23;;;3.37;;
48685;SDS011;34485;51.536;3.816;2023-05-24T03:49:33;13.95;;;4.45;;
48685;SDS011;34485;51.536;3.816;2023-05-24T03:51:59;11.90;;;4.33;;
48685;SDS011;34485;51.536;3.816;2023-05-24T03:54:24;9.73;;;4.30;;
48685;SDS011;34485;51.536;3.816;2023-05-24T03:56:50;14.43;;;3.60;;
48685;SDS011;34485;51.536;3.816;2023-05-24T03:59:17;11.00;;;3.38;;
48685;SDS011;34485;51.536;3.816;2023-05-24T04:01:43;7.90;;;4.03;;
48685;SDS011;34485;51.536;3.816;2023-05-24T04:04:08;4.45;;;3.40;;
48685;SDS011;34485;51.536;3.816;2023-05-24T04:06:34;8.93;;;3.77;;
48685;SDS011;34485;51.536;3.816;2023-05-24T04:09:00;11.23;;;3.90;;
48685;SDS011;34485;51.536;3.816;2023-05-24T04:11:29;10.77;;;3.65;;
48685;SDS011;34485;51.536;3.816;2023-05-24T04:13:54;9.93;;;3.70;;
48685;SDS011;34485;51.536;3.816;2023-05-24T04:16:21;6.70;;;3.42;;
48685;SDS011;34485;51.536;3.816;2023-05-24T04:18:51;6.32;;;3.55;;
48685;SDS011;34485;51.536;3.816;2023-05-24T04:21:18;7.93;;;4.25;;
48685;SDS011;34485;51.536;3.816;2023-05-24T04:23:44;10.70;;;3.58;;
48685;SDS011;34485;51.536;3.816;2023-05-24T04:26:10;11.30;;;3.83;;
48685;SDS011;34485;51.536;3.816;2023-05-24T04:28:36;8.43;;;3.45;;
48685;SDS011;34485;51.536;3.816;2023-05-24T04:31:05;17.73;;;4.07;;
48685;SDS011;34485;51.536;3.816;2023-05-24T04:33:31;22.00;;;4.43;;
48685;SDS011;34485;51.536;3.816;2023-05-24T04:35:57;12.25;;;4.03;;
48685;SDS011;34485;51.536;3.816;2023-05-24T04:38:25;9.27;;;3.95;;
48685;SDS011;34485;51.536;3.816;2023-05-24T04:40:53;6.72;;;3.55;;
48685;SDS011;34485;51.536;3.816;2023-05-24T04:43:20;8.02;;;3.50;;
48685;SDS011;34485;51.536;3.816;2023-05-24T04:45:46;9.53;;;4.03;;
48685;SDS011;34485;51.536;3.816;2023-05-24T04:48:12;9.23;;;3.17;;
48685;SDS011;34485;51.536;3.816;2023-05-24T04:50:37;9.63;;;3.60;;
48685;SDS011;34485;51.536;3.816;2023-05-24T04:53:04;15.70;;;4.45;;
48685;SDS011;34485;51.536;3.816;2023-05-24T04:55:29;18.67;;;3.90;;
48685;SDS011;34485;51.536;3.816;2023-05-24T04:57:56;4.87;;;3.40;;
48685;SDS011;34485;51.536;3.816;2023-05-24T05:00:22;13.20;;;3.83;;
48685;SDS011;34485;51.536;3.816;2023-05-24T05:02:47;18.43;;;4.50;;
48685;SDS011;34485;51.536;3.816;2023-05-24T05:05:13;9.00;;;3.30;;
48685;SDS011;34485;51.536;3.816;2023-05-24T05:10:15;10.98;;;4.55;;
48685;SDS011;34485;51.536;3.816;2023-05-24T05:12:41;11.07;;;4.60;;
48685;SDS011;34485;51.536;3.816;2023-05-24T05:15:07;9.48;;;3.13;;
48685;SDS011;34485;51.536;3.816;2023-05-24T05:17:33;16.42;;;4.30;;
48685;SDS011;34485;51.536;3.816;2023-05-24T05:20:02;10.93;;;3.43;;
48685;SDS011;34485;51.536;3.816;2023-05-24T05:22:28;16.25;;;3.83;;
48685;SDS011;34485;51.536;3.816;2023-05-24T05:24:54;8.20;;;3.75;;
48685;SDS011;34485;51.536;3.816;2023-05-24T05:27:20;15.93;;;3.50;;
48685;SDS011;34485;51.536;3.816;2023-05-24T05:29:46;8.20;;;4.05;;
48685;SDS011;34485;51.536;3.816;2023-05-24T05:32:11;14.27;;;4.10;;
48685;SDS011;34485;51.536;3.816;2023-05-24T05:34:37;8.83;;;4.20;;
48685;SDS011;34485;51.536;3.816;2023-05-24T05:37:03;12.07;;;3.80;;
48685;SDS011;34485;51.536;3.816;2023-05-24T05:39:28;14.55;;;4.10;;
48685;SDS011;34485;51.536;3.816;2023-05-24T05:41:55;13.18;;;4.75;;
48685;SDS011;34485;51.536;3.816;2023-05-24T05:44:21;11.47;;;4.33;;
48685;SDS011;34485;51.536;3.816;2023-05-24T05:46:47;11.32;;;3.83;;
48685;SDS011;34485;51.536;3.816;2023-05-24T05:49:13;11.83;;;3.90;;
48685;SDS011;34485;51.536;3.816;2023-05-24T05:51:39;9.68;;;3.63;;
48685;SDS011;34485;51.536;3.816;2023-05-24T05:54:06;11.68;;;4.82;;
48685;SDS011;34485;51.536;3.816;2023-05-24T05:56:38;15.63;;;4.50;;
48685;SDS011;34485;51.536;3.816;2023-05-24T05:59:13;15.80;;;3.83;;
48685;SDS011;34485;51.536;3.816;2023-05-24T06:01:42;12.77;;;4.60;;
48685;SDS011;34485;51.536;3.816;2023-05-24T06:04:10;16.08;;;3.65;;
48685;SDS011;34485;51.536;3.816;2023-05-24T06:06:36;11.20;;;3.23;;
48685;SDS011;34485;51.536;3.816;2023-05-24T06:09:02;15.20;;;4.07;;
48685;SDS011;34485;51.536;3.816;2023-05-24T06:11:28;15.63;;;4.30;;
48685;SDS011;34485;51.536;3.816;2023-05-24T06:13:53;11.23;;;3.22;;
48685;SDS011;34485;51.536;3.816;2023-05-24T06:16:19;12.97;;;3.57;;
48685;SDS011;34485;51.536;3.816;2023-05-24T06:18:45;14.32;;;4.00;;
48685;SDS011;34485;51.536;3.816;2023-05-24T06:21:14;13.38;;;3.25;;
48685;SDS011;34485;51.536;3.816;2023-05-24T06:23:40;12.80;;;3.70;;
48685;SDS011;34485;51.536;3.816;2023-05-24T06:26:06;13.17;;;3.47;;
48685;SDS011;34485;51.536;3.816;2023-05-24T06:28:33;7.00;;;2.95;;
48685;SDS011;34485;51.536;3.816;2023-05-24T06:31:00;8.65;;;3.83;;
48685;SDS011;34485;51.536;3.816;2023-05-24T06:33:25;7.17;;;2.83;;
48685;SDS011;34485;51.536;3.816;2023-05-24T06:35:51;8.95;;;3.15;;
48685;SDS011;34485;51.536;3.816;2023-05-24T06:38:17;14.35;;;3.60;;
48685;SDS011;34485;51.536;3.816;2023-05-24T06:40:43;7.47;;;3.77;;
48685;SDS011;34485;51.536;3.816;2023-05-24T06:43:09;14.35;;;4.18;;
48685;SDS011;34485;51.536;3.816;2023-05-24T06:45:34;13.00;;;4.22;;
48685;SDS011;34485;51.536;3.816;2023-05-24T06:48:01;13.30;;;4.20;;
48685;SDS011;34485;51.536;3.816;2023-05-24T06:50:27;9.75;;;3.22;;
48685;SDS011;34485;51.536;3.816;2023-05-24T06:52:52;7.07;;;3.37;;
48685;SDS011;34485;51.536;3.816;2023-05-24T06:55:19;13.00;;;3.72;;
48685;SDS011;34485;51.536;3.816;2023-05-24T06:57:45;16.38;;;3.55;;
48685;SDS011;34485;51.536;3.816;2023-05-24T07:00:10;13.83;;;3.47;;
48685;SDS011;34485;51.536;3.816;2023-05-24T07:02:40;12.55;;;4.18;;
48685;SDS011;34485;51.536;3.816;2023-05-24T07:05:06;6.50;;;3.22;;
48685;SDS011;34485;51.536;3.816;2023-05-24T07:07:38;11.75;;;3.80;;
48685;SDS011;34485;51.536;3.816;2023-05-24T07:10:08;10.23;;;3.50;;
48685;SDS011;34485;51.536;3.816;2023-05-24T07:12:35;7.37;;;3.90;;
48685;SDS011;34485;51.536;3.816;2023-05-24T07:15:02;9.02;;;4.50;;
48685;SDS011;34485;51.536;3.816;2023-05-24T07:17:28;7.70;;;3.08;;
48685;SDS011;34485;51.536;3.816;2023-05-24T07:19:54;9.50;;;2.90;;
48685;SDS011;34485;51.536;3.816;2023-05-24T07:22:20;13.80;;;3.57;;
48685;SDS011;34485;51.536;3.816;2023-05-24T07:24:48;17.75;;;3.80;;
48685;SDS011;34485;51.536;3.816;2023-05-24T07:27:13;11.20;;;3.35;;
48685;SDS011;34485;51.536;3.816;2023-05-24T07:29:39;8.10;;;3.57;;
48685;SDS011;34485;51.536;3.816;2023-05-24T07:32:06;7.22;;;2.78;;
48685;SDS011;34485;51.536;3.816;2023-05-24T07:34:32;8.50;;;2.90;;
48685;SDS011;34485;51.536;3.816;2023-05-24T07:36:58;12.85;;;3.42;;
48685;SDS011;34485;51.536;3.816;2023-05-24T07:39:25;10.98;;;3.72;;
48685;SDS011;34485;51.536;3.816;2023-05-24T07:41:51;10.07;;;3.53;;
48685;SDS011;34485;51.536;3.816;2023-05-24T07:44:18;10.05;;;2.97;;
48685;SDS011;34485;51.536;3.816;2023-05-24T07:46:43;14.33;;;3.83;;
48685;SDS011;34485;51.536;3.816;2023-05-24T07:49:09;9.60;;;3.90;;
48685;SDS011;34485;51.536;3.816;2023-05-24T07:51:35;11.70;;;3.43;;
48685;SDS011;34485;51.536;3.816;2023-05-24T07:54:01;12.15;;;3.70;;
48685;SDS011;34485;51.536;3.816;2023-05-24T07:56:27;9.80;;;3.40;;
48685;SDS011;34485;51.536;3.816;2023-05-24T07:58:53;8.63;;;3.22;;
48685;SDS011;34485;51.536;3.816;2023-05-24T08:01:23;9.07;;;2.97;;
48685;SDS011;34485;51.536;3.816;2023-05-24T08:03:49;9.07;;;3.90;;
48685;SDS011;34485;51.536;3.816;2023-05-24T08:06:14;6.67;;;3.13;;
48685;SDS011;34485;51.536;3.816;2023-05-24T08:08:40;9.77;;;3.60;;
48685;SDS011;34485;51.536;3.816;2023-05-24T08:11:06;5.07;;;2.90;;
48685;SDS011;34485;51.536;3.816;2023-05-24T08:13:34;8.37;;;3.03;;
48685;SDS011;34485;51.536;3.816;2023-05-24T08:16:00;12.40;;;3.53;;
48685;SDS011;34485;51.536;3.816;2023-05-24T08:18:25;11.23;;;4.30;;
48685;SDS011;34485;51.536;3.816;2023-05-24T08:20:51;9.88;;;3.75;;
48685;SDS011;34485;51.536;3.816;2023-05-24T08:23:17;6.87;;;3.07;;
48685;SDS011;34485;51.536;3.816;2023-05-24T08:25:43;12.70;;;3.60;;
48685;SDS011;34485;51.536;3.816;2023-05-24T08:28:08;10.07;;;3.50;;
48685;SDS011;34485;51.536;3.816;2023-05-24T08:30:35;10.07;;;2.95;;
48685;SDS011;34485;51.536;3.816;2023-05-24T08:33:01;6.57;;;2.72;;
48685;SDS011;34485;51.536;3.816;2023-05-24T08:35:27;8.02;;;3.03;;
48685;SDS011;34485;51.536;3.816;2023-05-24T08:37:52;9.00;;;3.20;;
48685;SDS011;34485;51.536;3.816;2023-05-24T08:40:18;7.53;;;3.40;;
48685;SDS011;34485;51.536;3.816;2023-05-24T08:42:44;9.57;;;2.93;;
48685;SDS011;34485;51.536;3.816;2023-05-24T08:45:11;4.68;;;2.30;;
48685;SDS011;34485;51.536;3.816;2023-05-24T08:47:38;8.32;;;3.08;;
48685;SDS011;34485;51.536;3.816;2023-05-24T08:50:05;6.00;;;3.08;;
48685;SDS011;34485;51.536;3.816;2023-05-24T08:52:32;17.47;;;3.10;;
48685;SDS011;34485;51.536;3.816;2023-05-24T08:54:58;9.63;;;2.97;;
48685;SDS011;34485;51.536;3.816;2023-05-24T08:57:28;6.47;;;3.03;;
48685;SDS011;34485;51.536;3.816;2023-05-24T08:59:56;9.45;;;2.90;;
48685;SDS011;34485;51.536;3.816;2023-05-24T09:02:22;4.80;;;2.23;;
48685;SDS011;34485;51.536;3.816;2023-05-24T09:04:49;7.15;;;2.90;;
48685;SDS011;34485;51.536;3.816;2023-05-24T09:07:22;8.32;;;3.38;;
48685;SDS011;34485;51.536;3.816;2023-05-24T09:09:59;7.13;;;2.83;;
48685;SDS011;34485;51.536;3.816;2023-05-24T09:12:29;8.85;;;3.13;;
48685;SDS011;34485;51.536;3.816;2023-05-24T09:14:57;9.80;;;3.13;;
48685;SDS011;34485;51.536;3.816;2023-05-24T09:17:24;10.60;;;3.10;;
48685;SDS011;34485;51.536;3.816;2023-05-24T09:19:50;5.28;;;2.60;;
48685;SDS011;34485;51.536;3.816;2023-05-24T09:22:17;7.88;;;3.10;;
48685;SDS011;34485;51.536;3.816;2023-05-24T09:25:18;5.60;;;3.00;;
48685;SDS011;34485;51.536;3.816;2023-05-24T09:27:38;4.00;;;2.70;;
48685;SDS011;34485;51.536;3.816;2023-05-24T09:30:07;6.57;;;3.00;;
48685;SDS011;34485;51.536;3.816;2023-05-24T09:32:34;6.03;;;3.28;;
48685;SDS011;34485;51.536;3.816;2023-05-24T09:35:00;8.93;;;3.33;;
48685;SDS011;34485;51.536;3.816;2023-05-24T09:37:26;5.07;;;3.20;;
48685;SDS011;34485;51.536;3.816;2023-05-24T09:39:53;8.93;;;3.35;;
48685;SDS011;34485;51.536;3.816;2023-05-24T09:44:48;5.13;;;3.30;;
48685;SDS011;34485;51.536;3.816;2023-05-24T09:47:33;6.53;;;3.40;;
48685;SDS011;34485;51.536;3.816;2023-05-24T09:50:00;6.28;;;3.30;;
48685;SDS011;34485;51.536;3.816;2023-05-24T09:52:26;7.50;;;3.70;;
48685;SDS011;34485;51.536;3.816;2023-05-24T09:54:52;5.38;;;3.10;;
48685;SDS011;34485;51.536;3.816;2023-05-24T09:57:18;5.53;;;3.50;;
48685;SDS011;34485;51.536;3.816;2023-05-24T09:59:46;6.90;;;3.22;;
48685;SDS011;34485;51.536;3.816;2023-05-24T10:02:13;6.57;;;3.20;;
48685;SDS011;34485;51.536;3.816;2023-05-24T10:04:42;4.03;;;2.47;;
48685;SDS011;34485;51.536;3.816;2023-05-24T10:07:08;6.67;;;3.40;;
48685;SDS011;34485;51.536;3.816;2023-05-24T10:09:36;6.38;;;3.47;;
48685;SDS011;34485;51.536;3.816;2023-05-24T10:12:05;4.38;;;3.00;;
48685;SDS011;34485;51.536;3.816;2023-05-24T10:14:33;6.78;;;3.75;;
48685;SDS011;34485;51.536;3.816;2023-05-24T10:17:01;5.53;;;2.85;;
48685;SDS011;34485;51.536;3.816;2023-05-24T10:19:29;7.73;;;3.50;;
48685;SDS011;34485;51.536;3.816;2023-05-24T10:21:58;5.25;;;2.90;;
48685;SDS011;34485;51.536;3.816;2023-05-24T10:24:37;5.18;;;3.17;;
48685;SDS011;34485;51.536;3.816;2023-05-24T10:27:05;3.65;;;3.00;;
48685;SDS011;34485;51.536;3.816;2023-05-24T10:29:43;7.30;;;2.92;;
48685;SDS011;34485;51.536;3.816;2023-05-24T10:32:25;5.43;;;2.90;;
48685;SDS011;34485;51.536;3.816;2023-05-24T10:34:56;6.40;;;2.92;;
48685;SDS011;34485;51.536;3.816;2023-05-24T10:37:23;5.68;;;2.70;;
48685;SDS011;34485;51.536;3.816;2023-05-24T10:39:50;4.65;;;2.95;;
48685;SDS011;34485;51.536;3.816;2023-05-24T10:42:16;3.30;;;2.43;;
48685;SDS011;34485;51.536;3.816;2023-05-24T10:44:42;3.88;;;2.22;;
48685;SDS011;34485;51.536;3.816;2023-05-24T10:49:36;7.72;;;2.95;;
48685;SDS011;34485;51.536;3.816;2023-05-24T10:52:06;7.30;;;2.53;;
48685;SDS011;34485;51.536;3.816;2023-05-24T10:54:33;5.53;;;2.55;;
48685;SDS011;34485;51.536;3.816;2023-05-24T10:57:00;6.80;;;2.63;;
48685;SDS011;34485;51.536;3.816;2023-05-24T10:59:35;4.88;;;2.22;;
48685;SDS011;34485;51.536;3.816;2023-05-24T11:02:07;3.55;;;2.97;;
48685;SDS011;34485;51.536;3.816;2023-05-24T11:04:38;4.30;;;2.13;;
48685;SDS011;34485;51.536;3.816;2023-05-24T11:07:06;6.28;;;2.25;;
48685;SDS011;34485;51.536;3.816;2023-05-24T11:09:39;5.50;;;2.75;;
48685;SDS011;34485;51.536;3.816;2023-05-24T11:12:11;6.25;;;2.67;;
48685;SDS011;34485;51.536;3.816;2023-05-24T11:14:39;8.93;;;3.38;;
48685;SDS011;34485;51.536;3.816;2023-05-24T11:17:10;3.37;;;2.13;;
48685;SDS011;34485;51.536;3.816;2023-05-24T11:19:37;6.57;;;2.75;;
48685;SDS011;34485;51.536;3.816;2023-05-24T11:22:14;5.80;;;2.40;;
48685;SDS011;34485;51.536;3.816;2023-05-24T11:24:40;8.68;;;2.72;;
48685;SDS011;34485;51.536;3.816;2023-05-24T11:27:06;8.27;;;2.90;;
48685;SDS011;34485;51.536;3.816;2023-05-24T11:29:41;5.90;;;2.45;;
48685;SDS011;34485;51.536;3.816;2023-05-24T11:32:09;3.60;;;2.22;;
48685;SDS011;34485;51.536;3.816;2023-05-24T11:34:39;6.88;;;2.50;;
48685;SDS011;34485;51.536;3.816;2023-05-24T11:37:05;4.67;;;2.67;;
48685;SDS011;34485;51.536;3.816;2023-05-24T11:39:32;8.88;;;3.65;;
48685;SDS011;34485;51.536;3.816;2023-05-24T11:41:59;7.85;;;2.40;;
48685;SDS011;34485;51.536;3.816;2023-05-24T11:44:29;3.78;;;2.47;;
48685;SDS011;34485;51.536;3.816;2023-05-24T11:49:25;4.37;;;2.13;;
48685;SDS011;34485;51.536;3.816;2023-05-24T11:51:52;7.47;;;2.63;;
48685;SDS011;34485;51.536;3.816;2023-05-24T11:54:19;6.20;;;2.50;;
48685;SDS011;34485;51.536;3.816;2023-05-24T11:56:46;6.22;;;2.60;;
48685;SDS011;34485;51.536;3.816;2023-05-24T11:59:15;5.73;;;2.50;;
48685;SDS011;34485;51.536;3.816;2023-05-24T12:01:42;7.57;;;2.63;;
48685;SDS011;34485;51.536;3.816;2023-05-24T12:04:08;5.20;;;2.58;;
48685;SDS011;34485;51.536;3.816;2023-05-24T12:06:43;5.53;;;2.87;;
48685;SDS011;34485;51.536;3.816;2023-05-24T12:09:09;5.65;;;2.30;;
48685;SDS011;34485;51.536;3.816;2023-05-24T12:11:46;7.63;;;2.92;;
48685;SDS011;34485;51.536;3.816;2023-05-24T12:14:13;5.70;;;2.28;;
48685;SDS011;34485;51.536;3.816;2023-05-24T12:16:39;6.35;;;2.65;;
48685;SDS011;34485;51.536;3.816;2023-05-24T12:19:06;7.40;;;2.67;;
48685;SDS011;34485;51.536;3.816;2023-05-24T12:21:32;8.18;;;2.72;;
48685;SDS011;34485;51.536;3.816;2023-05-24T12:24:18;7.85;;;3.10;;
48685;SDS011;34485;51.536;3.816;2023-05-24T12:26:45;5.30;;;2.45;;
48685;SDS011;34485;51.536;3.816;2023-05-24T12:29:12;8.13;;;3.10;;
48685;SDS011;34485;51.536;3.816;2023-05-24T12:31:41;4.32;;;2.50;;
48685;SDS011;34485;51.536;3.816;2023-05-24T12:34:12;5.63;;;2.38;;
48685;SDS011;34485;51.536;3.816;2023-05-24T12:36:38;5.82;;;2.25;;
48685;SDS011;34485;51.536;3.816;2023-05-24T12:39:22;5.07;;;2.40;;
48685;SDS011;34485;51.536;3.816;2023-05-24T12:41:55;4.97;;;2.40;;
48685;SDS011;34485;51.536;3.816;2023-05-24T12:44:26;4.15;;;2.50;;
48685;SDS011;34485;51.536;3.816;2023-05-24T12:46:53;8.10;;;2.70;;
48685;SDS011;34485;51.536;3.816;2023-05-24T12:49:20;4.28;;;1.98;;
48685;SDS011;34485;51.536;3.816;2023-05-24T12:51:46;6.28;;;2.67;;
48685;SDS011;34485;51.536;3.816;2023-05-24T12:54:12;4.83;;;2.10;;
48685;SDS011;34485;51.536;3.816;2023-05-24T12:56:37;10.52;;;2.65;;
48685;SDS011;34485;51.536;3.816;2023-05-24T12:59:03;6.33;;;2.00;;
48685;SDS011;34485;51.536;3.816;2023-05-24T13:01:29;4.50;;;2.28;;
48685;SDS011;34485;51.536;3.816;2023-05-24T13:03:55;4.47;;;2.40;;
48685;SDS011;34485;51.536;3.816;2023-05-24T13:06:21;4.47;;;2.57;;
48685;SDS011;34485;51.536;3.816;2023-05-24T13:08:46;4.63;;;2.47;;
48685;SDS011;34485;51.536;3.816;2023-05-24T13:11:12;6.00;;;2.47;;
48685;SDS011;34485;51.536;3.816;2023-05-24T13:13:38;6.93;;;2.10;;
48685;SDS011;34485;51.536;3.816;2023-05-24T13:16:04;6.60;;;2.63;;
48685;SDS011;34485;51.536;3.816;2023-05-24T13:18:34;3.67;;;2.30;;
48685;SDS011;34485;51.536;3.816;2023-05-24T13:21:00;5.65;;;2.50;;
48685;SDS011;34485;51.536;3.816;2023-05-24T13:23:26;4.60;;;2.23;;
48685;SDS011;34485;51.536;3.816;2023-05-24T13:25:52;5.22;;;2.63;;
48685;SDS011;34485;51.536;3.816;2023-05-24T13:28:21;7.93;;;2.72;;
48685;SDS011;34485;51.536;3.816;2023-05-24T13:30:46;5.97;;;2.87;;
48685;SDS011;34485;51.536;3.816;2023-05-24T13:33:12;3.97;;;2.55;;
48685;SDS011;34485;51.536;3.816;2023-05-24T13:35:38;6.47;;;2.80;;
48685;SDS011;34485;51.536;3.816;2023-05-24T13:38:04;8.23;;;2.58;;
48685;SDS011;34485;51.536;3.816;2023-05-24T13:40:30;3.65;;;2.17;;
48685;SDS011;34485;51.536;3.816;2023-05-24T13:42:56;7.57;;;2.83;;
48685;SDS011;34485;51.536;3.816;2023-05-24T13:45:22;10.40;;;2.40;;
48685;SDS011;34485;51.536;3.816;2023-05-24T13:47:48;8.20;;;3.00;;
48685;SDS011;34485;51.536;3.816;2023-05-24T13:50:14;5.57;;;2.33;;
48685;SDS011;34485;51.536;3.816;2023-05-24T13:52:39;4.87;;;2.50;;
48685;SDS011;34485;51.536;3.816;2023-05-24T13:55:05;6.47;;;2.50;;
48685;SDS011;34485;51.536;3.816;2023-05-24T13:57:31;10.65;;;2.47;;
48685;SDS011;34485;51.536;3.816;2023-05-24T13:59:57;6.27;;;2.93;;
48685;SDS011;34485;51.536;3.816;2023-05-24T14:02:24;6.15;;;2.60;;
48685;SDS011;34485;51.536;3.816;2023-05-24T14:04:50;4.93;;;2.28;;
48685;SDS011;34485;51.536;3.816;2023-05-24T14:07:17;3.53;;;2.20;;
48685;SDS011;34485;51.536;3.816;2023-05-24T14:09:43;9.63;;;2.83;;
48685;SDS011;34485;51.536;3.816;2023-05-24T14:12:09;6.43;;;3.08;;
48685;SDS011;34485;51.536;3.816;2023-05-24T14:14:36;5.35;;;2.70;;
48685;SDS011;34485;51.536;3.816;2023-05-24T14:17:01;5.00;;;2.00;;
48685;SDS011;34485;51.536;3.816;2023-05-24T14:19:27;3.35;;;1.65;;
48685;SDS011;34485;51.536;3.816;2023-05-24T14:21:53;3.63;;;2.17;;
48685;SDS011;34485;51.536;3.816;2023-05-24T14:24:18;5.80;;;2.67;;
48685;SDS011;34485;51.536;3.816;2023-05-24T14:26:44;4.00;;;1.80;;
48685;SDS011;34485;51.536;3.816;2023-05-24T14:29:11;9.30;;;2.30;;
48685;SDS011;34485;51.536;3.816;2023-05-24T14:31:37;6.60;;;2.75;;
48685;SDS011;34485;51.536;3.816;2023-05-24T14:34:09;4.00;;;2.63;;
48685;SDS011;34485;51.536;3.816;2023-05-24T14:36:36;9.43;;;2.67;;
48685;SDS011;34485;51.536;3.816;2023-05-24T14:39:03;7.10;;;2.53;;
48685;SDS011;34485;51.536;3.816;2023-05-24T14:41:31;6.50;;;2.65;;
48685;SDS011;34485;51.536;3.816;2023-05-24T14:43:56;3.40;;;1.85;;
48685;SDS011;34485;51.536;3.816;2023-05-24T14:46:22;3.90;;;2.67;;
48685;SDS011;34485;51.536;3.816;2023-05-24T14:48:48;5.72;;;2.67;;
48685;SDS011;34485;51.536;3.816;2023-05-24T14:51:13;5.13;;;2.37;;
48685;SDS011;34485;51.536;3.816;2023-05-24T14:53:39;8.20;;;2.42;;
48685;SDS011;34485;51.536;3.816;2023-05-24T14:56:05;8.13;;;2.43;;
48685;SDS011;34485;51.536;3.816;2023-05-24T14:58:32;5.50;;;2.78;;
48685;SDS011;34485;51.536;3.816;2023-05-24T15:00:58;5.87;;;2.20;;
48685;SDS011;34485;51.536;3.816;2023-05-24T15:03:24;6.50;;;2.72;;
48685;SDS011;34485;51.536;3.816;2023-05-24T15:05:49;11.77;;;3.10;;